Time;durP1;ratioP1;P1;durP2;ratioP2;P2;SDS_P1;SDS_P2;PMS_P1;PMS_P2;Temp;Humidity;BMP_temperature;BMP_pressure;BME280_temperature;BME280_humidity;BME280_pressure;Samples;Min_cycle;Max_cycle;Signal;HPM_P1;HPM_P2
2023/11/29 00:06:35;;;;;;;0.13;0.05;;;-1.20;91.20;;;;;;25469972;23;20009;-51
2023/11/29 00:16:36;;;;;;;0.05;0.00;;;-1.00;89.90;;;;;;25471392;23;20005;-55
2023/11/29 00:26:38;;;;;;;0.20;0.10;;;-0.90;90.20;;;;;;25471203;23;20009;-57
2023/11/29 00:36:40;;;;;;;0.08;0.00;;;-1.00;89.40;;;;;;25470571;23;20033;-57
2023/11/29 00:46:41;;;;;;;0.10;0.00;;;-1.00;88.60;;;;;;25470097;23;20060;-57
2023/11/29 00:56:43;;;;;;;0.00;0.00;;;-1.00;89.00;;;;;;25469946;23;20008;-55
2023/11/29 01:06:45;;;;;;;0.10;0.00;;;-1.00;88.40;;;;;;25470259;23;20002;-46
2023/11/29 01:16:49;;;;;;;0.25;0.10;;;-1.20;87.70;;;;;;25468716;23;20002;-57
2023/11/29 01:26:50;;;;;;;0.17;0.00;;;-1.30;87.30;;;;;;25468844;23;20136;-47
2023/11/29 01:36:52;;;;;;;0.00;0.00;;;-1.20;87.10;;;;;;25469365;23;20005;-46
2023/11/29 01:46:55;;;;;;;0.00;0.00;;;-1.40;87.20;;;;;;25473195;23;20014;-57
2023/11/29 01:56:57;;;;;;;0.20;0.00;;;-1.40;86.40;;;;;;25476822;23;20017;-57
2023/11/29 02:06:59;;;;;;;0.00;0.00;;;-1.40;85.50;;;;;;25474665;23;20009;-57
2023/11/29 02:17:00;;;;;;;0.00;0.00;;;-1.60;86.40;;;;;;25474433;23;20005;-45
2023/11/29 02:27:02;;;;;;;0.00;0.00;;;-1.70;86.30;;;;;;25475590;23;20010;-57
2023/11/29 02:37:07;;;;;;;0.13;0.00;;;-1.80;86.40;;;;;;25475312;23;20001;-51
2023/11/29 02:47:09;;;;;;;0.00;0.00;;;-1.80;86.30;;;;;;25474433;23;20361;-57
2023/11/29 02:57:11;;;;;;;0.00;0.00;;;-2.00;87.30;;;;;;25474220;23;20009;-57
2023/11/29 03:07:12;;;;;;;0.20;0.00;;;-1.90;86.80;;;;;;25474049;23;20064;-48
2023/11/29 03:17:14;;;;;;;0.00;0.00;;;-2.10;86.20;;;;;;25473557;23;20001;-52
2023/11/29 03:27:19;;;;;;;0.10;0.00;;;-2.10;86.30;;;;;;25471452;23;20005;-57
2023/11/29 03:37:23;;;;;;;0.20;0.00;;;-2.10;86.30;;;;;;25447001;23;20492;-44
2023/11/29 03:47:25;;;;;;;0.08;0.00;;;-2.30;86.60;;;;;;25470398;23;20017;-44
2023/11/29 03:57:26;;;;;;;0.10;0.00;;;-2.40;87.40;;;;;;25471882;23;20326;-56
2023/11/29 04:07:28;;;;;;;0.10;0.00;;;-2.30;87.00;;;;;;25471658;23;20010;-46
2023/11/29 04:17:30;;;;;;;0.00;0.00;;;-2.40;86.60;;;;;;25443661;23;20009;-52
2023/11/29 04:27:32;;;;;;;0.00;0.00;;;-2.50;86.00;;;;;;25471151;23;20060;-48
2023/11/29 04:37:34;;;;;;;3.15;0.00;;;-2.40;87.20;;;;;;25469629;23;20433;-56
2023/11/29 04:47:36;;;;;;;0.00;0.00;;;-2.50;86.80;;;;;;25470318;23;20010;-45
2023/11/29 04:57:38;;;;;;;0.00;0.00;;;-2.50;85.40;;;;;;25444490;23;20032;-50
2023/11/29 05:07:40;;;;;;;0.00;0.00;;;-2.60;86.30;;;;;;25469798;23;20512;-57
2023/11/29 05:17:45;;;;;;;0.10;0.00;;;-2.60;85.40;;;;;;25472397;23;20009;-45
2023/11/29 05:27:50;;;;;;;0.00;0.00;;;-2.50;85.20;;;;;;25517002;23;20017;-51
2023/11/29 05:37:52;;;;;;;0.10;0.00;;;-2.50;85.30;;;;;;25476979;23;20012;-54
2023/11/29 05:47:56;;;;;;;0.00;0.00;;;-2.70;84.80;;;;;;25451051;23;20311;-58
2023/11/29 05:58:00;;;;;;;0.10;0.00;;;-2.70;85.60;;;;;;25476619;23;20060;-47
2023/11/29 06:08:02;;;;;;;0.10;0.00;;;-2.80;86.40;;;;;;25425232;23;20465;-55
2023/11/29 06:18:08;;;;;;;0.10;0.00;;;-2.80;85.40;;;;;;25449070;23;20445;-53
2023/11/29 06:28:10;;;;;;;0.32;0.10;;;-3.10;88.70;;;;;;25402118;23;20010;-57
2023/11/29 06:38:15;;;;;;;0.80;0.00;;;-3.60;89.90;;;;;;25448314;23;20005;-44
2023/11/29 06:48:21;;;;;;;0.22;0.00;;;-3.10;86.00;;;;;;25447825;23;20022;-46
2023/11/29 06:58:27;;;;;;;0.25;0.00;;;-2.90;84.60;;;;;;25400481;23;20397;-45
2023/11/29 07:08:31;;;;;;;0.10;0.00;;;-2.90;86.80;;;;;;25472173;23;20072;-49
2023/11/29 07:18:33;;;;;;;0.00;0.00;;;-3.10;87.70;;;;;;25422611;23;20484;-57
2023/11/29 07:28:35;;;;;;;0.13;0.00;;;-3.10;88.90;;;;;;25447177;23;20006;-45
2023/11/29 07:38:36;;;;;;;0.08;0.00;;;-3.10;90.90;;;;;;25471386;23;20009;-44
2023/11/29 07:48:38;;;;;;;0.38;0.10;;;-2.40;90.00;;;;;;25514387;23;20117;-44
2023/11/29 07:58:40;;;;;;;0.70;0.20;;;-1.80;91.00;;;;;;25472293;23;20016;-53
2023/11/29 08:08:42;;;;;;;0.30;0.10;;;-1.00;90.80;;;;;;25471895;23;20006;-56
2023/11/29 08:18:45;;;;;;;0.52;0.10;;;0.40;88.40;;;;;;25471544;23;20032;-56
2023/11/29 08:28:47;;;;;;;0.70;0.10;;;1.20;86.70;;;;;;25471353;23;20006;-50
2023/11/29 08:38:51;;;;;;;0.10;0.00;;;1.70;84.30;;;;;;25470456;23;20072;-58
2023/11/29 08:48:54;;;;;;;0.13;0.03;;;1.10;82.70;;;;;;25470220;23;20060;-57
2023/11/29 08:58:56;;;;;;;0.10;0.00;;;1.50;83.80;;;;;;25477037;23;20002;-57
2023/11/29 09:08:58;;;;;;;0.20;0.10;;;1.30;84.50;;;;;;25478559;23;20048;-57
2023/11/29 09:19:00;;;;;;;0.22;0.10;;;1.00;85.50;;;;;;25478472;23;20009;-46
2023/11/29 09:29:02;;;;;;;0.20;0.10;;;1.50;88.40;;;;;;25476386;23;20341;-51
2023/11/29 09:39:12;;;;;;;0.20;0.10;;;1.40;89.50;;;;;;25477323;23;20059;-56
2023/11/29 09:49:14;;;;;;;0.35;0.10;;;0.80;91.00;;;;;;25475254;23;20064;-48
2023/11/29 09:59:17;;;;;;;1.55;0.30;;;0.80;90.60;;;;;;25477160;23;20016;-50
2023/11/29 10:09:19;;;;;;;0.50;0.30;;;1.00;91.40;;;;;;25476499;23;20476;-46
2023/11/29 10:19:21;;;;;;;1.73;1.00;;;1.70;91.80;;;;;;25476155;23;20002;-46
2023/11/29 10:29:24;;;;;;;1.40;0.70;;;3.50;94.10;;;;;;25475751;23;20009;-56
2023/11/29 10:39:30;;;;;;;1.02;0.77;;;2.90;93.20;;;;;;25474855;23;20075;-56
2023/11/29 10:49:42;;;;;;;2.25;0.60;;;4.00;93.10;;;;;;25515471;23;20005;-57
2023/11/29 11:00:01;;;;;;;1.30;1.00;;;4.60;90.80;;;;;;25515548;23;20025;-56
2023/11/29 11:10:03;;;;;;;1.35;0.80;;;5.30;92.90;;;;;;25514964;23;20009;-56
2023/11/29 11:20:10;;;;;;;1.48;0.90;;;5.70;91.10;;;;;;25512621;23;20005;-56
2023/11/29 11:30:18;;;;;;;1.65;1.20;;;6.70;90.30;;;;;;25513858;23;20005;-57
2023/11/29 11:40:33;;;;;;;1.20;0.80;;;6.80;90.90;;;;;;25497492;23;20013;-49
2023/11/29 11:50:35;;;;;;;2.63;1.30;;;6.80;88.30;;;;;;25512074;23;20005;-56
2023/11/29 12:00:39;;;;;;;2.70;1.80;;;7.20;87.30;;;;;;25471151;23;20012;-49
2023/11/29 12:10:41;;;;;;;2.70;1.67;;;7.40;91.60;;;;;;25471921;23;20001;-48
2023/11/29 12:20:43;;;;;;;2.90;2.20;;;7.40;90.10;;;;;;25471684;23;20009;-50
2023/11/29 12:30:45;;;;;;;4.10;2.78;;;7.30;91.00;;;;;;25470662;23;20005;-51
2023/11/29 12:40:48;;;;;;;4.22;2.97;;;6.70;93.10;;;;;;25469234;23;20081;-57
2023/11/29 12:50:50;;;;;;;3.67;2.50;;;6.50;94.30;;;;;;25470562;23;20013;-49
2023/11/29 13:00:51;;;;;;;4.60;3.13;;;6.30;94.40;;;;;;25470657;23;20009;-52
2023/11/29 13:10:55;;;;;;;6.28;3.63;;;5.70;94.80;;;;;;25470488;23;20012;-57
2023/11/29 13:20:57;;;;;;;5.47;3.85;;;4.70;96.40;;;;;;25470186;23;20377;-48
2023/11/29 13:30:59;;;;;;;4.82;3.42;;;4.30;97.70;;;;;;25468626;23;20088;-51
2023/11/29 13:41:00;;;;;;;5.03;3.65;;;3.90;99.10;;;;;;25472578;23;20341;-56
2023/11/29 13:51:02;;;;;;;6.47;3.88;;;3.40;99.90;;;;;;25477433;23;20001;-49
2023/11/29 14:01:05;;;;;;;5.00;3.42;;;3.10;99.90;;;;;;25476223;23;19997;-58
2023/11/29 14:11:07;;;;;;;5.30;3.80;;;2.70;99.90;;;;;;25476801;23;19998;-58
2023/11/29 14:21:09;;;;;;;4.53;3.40;;;2.50;99.90;;;;;;25475875;23;20366;-57
2023/11/29 14:31:11;;;;;;;4.68;3.20;;;2.60;99.90;;;;;;25475901;23;20449;-58
2023/11/29 14:41:14;;;;;;;5.88;3.60;;;2.30;99.90;;;;;;25475319;23;20020;-57
2023/11/29 14:51:15;;;;;;;5.22;3.40;;;1.60;99.90;;;;;;25474254;23;20008;-57
2023/11/29 15:01:17;;;;;;;5.22;3.17;;;1.10;99.90;;;;;;25473204;23;19998;-57
2023/11/29 15:11:19;;;;;;;6.15;3.30;;;0.60;99.90;;;;;;25474193;23;20005;-55
2023/11/29 15:21:21;;;;;;;4.80;3.17;;;0.10;99.90;;;;;;25473828;23;20497;-57
2023/11/29 15:31:26;;;;;;;5.45;3.30;;;-0.40;99.90;;;;;;25473449;23;20002;-56
2023/11/29 15:41:28;;;;;;;5.82;3.78;;;-0.70;99.90;;;;;;25473437;23;20010;-50
2023/11/29 15:51:29;;;;;;;6.35;3.35;;;-0.80;99.90;;;;;;25472494;23;20010;-46
2023/11/29 16:01:34;;;;;;;6.90;3.90;;;-0.80;99.90;;;;;;25470291;23;20013;-58
2023/11/29 16:11:36;;;;;;;7.97;4.03;;;-0.90;99.90;;;;;;25472248;23;20002;-48
2023/11/29 16:21:38;;;;;;;6.70;4.20;;;-0.80;99.90;;;;;;25471742;23;20274;-57
2023/11/29 16:31:40;;;;;;;7.18;4.35;;;-0.60;99.90;;;;;;25471587;23;20016;-49
2023/11/29 16:41:42;;;;;;;8.82;4.47;;;-0.50;99.90;;;;;;25471179;23;20010;-47
2023/11/29 16:51:44;;;;;;;7.70;4.70;;;-0.60;99.90;;;;;;25470933;23;20002;-48
2023/11/29 17:01:45;;;;;;;6.93;4.82;;;-0.80;99.90;;;;;;25470764;23;20006;-56
2023/11/29 17:11:48;;;;;;;9.32;5.50;;;-1.20;99.90;;;;;;25470998;23;20012;-57
2023/11/29 17:21:51;;;;;;;10.05;6.18;;;-1.70;99.90;;;;;;25477990;23;20091;-57
2023/11/29 17:31:53;;;;;;;12.73;7.60;;;-2.00;99.90;;;;;;25478223;23;20009;-57
2023/11/29 17:41:55;;;;;;;12.82;7.10;;;-2.10;99.90;;;;;;25477571;23;20013;-49
2023/11/29 17:51:57;;;;;;;12.45;7.25;;;-2.20;99.90;;;;;;25477371;23;20009;-58
2023/11/29 18:01:59;;;;;;;14.82;7.65;;;-2.20;99.90;;;;;;25477130;23;20005;-47
2023/11/29 18:12:01;;;;;;;12.63;7.45;;;-2.20;99.90;;;;;;25476857;23;20076;-57
2023/11/29 18:22:02;;;;;;;11.35;7.22;;;-2.00;99.90;;;;;;25475908;23;20005;-57
2023/11/29 18:32:05;;;;;;;12.25;7.07;;;-1.70;99.90;;;;;;25475923;23;20002;-57
2023/11/29 18:42:06;;;;;;;11.75;6.82;;;-1.40;99.90;;;;;;25475447;23;20010;-56
2023/11/29 18:52:09;;;;;;;12.50;6.07;;;-1.20;99.90;;;;;;25475219;23;20437;-58
2023/11/29 19:02:11;;;;;;;9.15;5.53;;;-1.00;99.90;;;;;;25473376;23;20337;-58
2023/11/29 19:12:13;;;;;;;9.60;5.78;;;-0.90;99.90;;;;;;25471160;23;20001;-58
2023/11/29 19:22:15;;;;;;;8.90;5.85;;;-0.70;99.90;;;;;;25470746;23;20033;-55
2023/11/29 19:32:17;;;;;;;9.80;5.57;;;-0.50;99.90;;;;;;25470004;23;20469;-58
2023/11/29 19:42:19;;;;;;;8.13;5.22;;;-0.30;99.90;;;;;;25468597;23;20010;-58
2023/11/29 19:52:21;;;;;;;9.15;5.18;;;-0.20;99.90;;;;;;25468045;23;20020;-58
2023/11/29 20:02:23;;;;;;;7.00;4.50;;;0.00;99.90;;;;;;25469552;23;20012;-58
2023/11/29 20:12:25;;;;;;;11.82;5.07;;;0.10;99.90;;;;;;25471917;23;20006;-58
2023/11/29 20:22:27;;;;;;;8.32;4.68;;;0.10;99.90;;;;;;25471662;23;20006;-58
2023/11/29 20:32:29;;;;;;;7.75;4.78;;;0.10;99.90;;;;;;25470937;23;20056;-50
2023/11/29 20:42:37;;;;;;;9.65;5.35;;;0.10;99.90;;;;;;25470956;23;20018;-58
2023/11/29 20:52:39;;;;;;;6.25;4.05;;;0.20;99.90;;;;;;25470663;23;20029;-58
2023/11/29 21:02:47;;;;;;;8.25;3.83;;;0.20;99.90;;;;;;25470699;23;20079;-51
2023/11/29 21:12:52;;;;;;;7.20;4.30;;;0.30;99.90;;;;;;25470300;23;20029;-58
2023/11/29 21:22:54;;;;;;;8.93;4.07;;;0.30;99.90;;;;;;25470185;23;20087;-58
2023/11/29 21:32:56;;;;;;;6.45;4.03;;;0.30;99.90;;;;;;25468975;23;20009;-57
2023/11/29 21:43:01;;;;;;;6.53;4.13;;;0.40;99.90;;;;;;25470090;23;20338;-58
2023/11/29 21:53:03;;;;;;;8.00;4.30;;;0.40;99.90;;;;;;25469479;23;20012;-58
2023/11/29 22:03:04;;;;;;;6.18;3.88;;;0.40;99.90;;;;;;25473214;23;20002;-58
2023/11/29 22:13:06;;;;;;;8.50;4.95;;;0.40;99.90;;;;;;25476779;23;20005;-58
2023/11/29 22:23:11;;;;;;;7.05;4.85;;;0.40;99.90;;;;;;25476110;23;20025;-58
2023/11/29 22:33:13;;;;;;;7.40;4.50;;;0.40;99.90;;;;;;25475769;23;20064;-49
2023/11/29 22:43:15;;;;;;;6.72;4.32;;;0.40;99.90;;;;;;25448742;23;20009;-58
2023/11/29 22:53:16;;;;;;;5.90;4.10;;;0.40;99.90;;;;;;25475169;23;20008;-58
2023/11/29 23:03:18;;;;;;;3.78;2.42;;;0.40;99.90;;;;;;25474701;23;20013;-47
2023/11/29 23:13:20;;;;;;;3.75;2.30;;;0.40;99.90;;;;;;25474281;23;20469;-52
2023/11/29 23:23:22;;;;;;;3.90;2.20;;;0.50;99.90;;;;;;25473941;23;20441;-58
2023/11/29 23:33:27;;;;;;;3.33;1.77;;;0.40;99.90;;;;;;25473822;23;20005;-58
2023/11/29 23:43:32;;;;;;;3.88;2.25;;;0.30;99.90;;;;;;25473361;23;20009;-44
2023/11/29 23:53:34;;;;;;;4.18;2.67;;;0.20;99.90;;;;;;25472926;23;20006;-56
